Terminal Aerodrome Forecast
Issued by NWS Shreveport, LA

Home | Current Version | Previous Version | Text Only | Print | Product List | Glossary On
Versions: 1 2 3 4 5 6 7 8 9 10 11 12 13 14 15 16 17 18 19 20
000
FTUS44 KSHV 271740
TAFELD
TAF
KELD 271740Z 2718/2818 11009KT P6SM SKC
     FM281100 15007KT P6SM BKN020
     FM281200 17010KT 4SM BR OVC007
     FM281400 18008G14KT 6SM BR OVC007
     FM281600 18010G16KT P6SM OVC015=

USA.gov is the U.S. government's official web portal to all federal, state and local government web resources and services.